sensor_id;sensor_type;location;lat;lon;timestamp;P1;durP1;ratioP1;P2;durP2;ratioP2
39434;SDS011;66825;51.880;-0.518;2023-04-09T00:00:40;1.70;;;1.60;;
39434;SDS011;66825;51.880;-0.518;2023-04-09T00:03:06;2.28;;;1.50;;
39434;SDS011;66825;51.880;-0.518;2023-04-09T00:05:31;1.52;;;1.30;;
39434;SDS011;66825;51.880;-0.518;2023-04-09T00:07:57;2.33;;;1.58;;
39434;SDS011;66825;51.880;-0.518;2023-04-09T00:10:22;2.53;;;1.50;;
39434;SDS011;66825;51.880;-0.518;2023-04-09T00:12:48;2.38;;;1.67;;
39434;SDS011;66825;51.880;-0.518;2023-04-09T00:15:13;2.05;;;1.40;;
39434;SDS011;66825;51.880;-0.518;2023-04-09T00:17:38;1.90;;;1.60;;
39434;SDS011;66825;51.880;-0.518;2023-04-09T00:20:04;2.42;;;1.65;;
39434;SDS011;66825;51.880;-0.518;2023-04-09T00:22:31;1.60;;;1.50;;
39434;SDS011;66825;51.880;-0.518;2023-04-09T00:24:57;1.60;;;1.48;;
39434;SDS011;66825;51.880;-0.518;2023-04-09T00:27:22;1.90;;;1.55;;
39434;SDS011;66825;51.880;-0.518;2023-04-09T00:29:48;1.75;;;1.60;;
39434;SDS011;66825;51.880;-0.518;2023-04-09T00:32:13;2.13;;;1.60;;
39434;SDS011;66825;51.880;-0.518;2023-04-09T00:34:39;1.83;;;1.60;;
39434;SDS011;66825;51.880;-0.518;2023-04-09T00:37:05;2.75;;;1.80;;
39434;SDS011;66825;51.880;-0.518;2023-04-09T00:39:30;2.00;;;1.70;;
39434;SDS011;66825;51.880;-0.518;2023-04-09T00:41:56;2.17;;;1.60;;
39434;SDS011;66825;51.880;-0.518;2023-04-09T00:44:23;2.50;;;2.30;;
39434;SDS011;66825;51.880;-0.518;2023-04-09T00:46:49;2.60;;;2.13;;
39434;SDS011;66825;51.880;-0.518;2023-04-09T00:49:15;2.38;;;1.80;;
39434;SDS011;66825;51.880;-0.518;2023-04-09T00:51:41;2.03;;;1.70;;
39434;SDS011;66825;51.880;-0.518;2023-04-09T00:54:08;2.00;;;1.67;;
39434;SDS011;66825;51.880;-0.518;2023-04-09T00:56:34;2.03;;;1.73;;
39434;SDS011;66825;51.880;-0.518;2023-04-09T00:59:01;1.80;;;1.67;;
39434;SDS011;66825;51.880;-0.518;2023-04-09T01:01:26;2.45;;;2.00;;
39434;SDS011;66825;51.880;-0.518;2023-04-09T01:03:52;2.28;;;2.03;;
39434;SDS011;66825;51.880;-0.518;2023-04-09T01:06:27;2.65;;;1.90;;
39434;SDS011;66825;51.880;-0.518;2023-04-09T01:09:32;2.17;;;1.98;;
39434;SDS011;66825;51.880;-0.518;2023-04-09T01:17:39;2.22;;;1.90;;
39434;SDS011;66825;51.880;-0.518;2023-04-09T01:20:13;2.42;;;1.88;;
39434;SDS011;66825;51.880;-0.518;2023-04-09T01:30:49;2.35;;;1.90;;
39434;SDS011;66825;51.880;-0.518;2023-04-09T01:33:20;2.78;;;2.35;;
39434;SDS011;66825;51.880;-0.518;2023-04-09T01:35:48;2.15;;;1.92;;
39434;SDS011;66825;51.880;-0.518;2023-04-09T01:38:16;2.38;;;2.10;;
39434;SDS011;66825;51.880;-0.518;2023-04-09T01:40:43;2.95;;;2.58;;
39434;SDS011;66825;51.880;-0.518;2023-04-09T01:43:10;2.55;;;2.17;;
39434;SDS011;66825;51.880;-0.518;2023-04-09T01:45:37;2.65;;;2.20;;
39434;SDS011;66825;51.880;-0.518;2023-04-09T01:48:04;2.30;;;2.03;;
39434;SDS011;66825;51.880;-0.518;2023-04-09T01:50:31;3.05;;;2.33;;
39434;SDS011;66825;51.880;-0.518;2023-04-09T01:52:56;2.35;;;2.15;;
39434;SDS011;66825;51.880;-0.518;2023-04-09T01:55:22;2.78;;;2.40;;
39434;SDS011;66825;51.880;-0.518;2023-04-09T01:57:47;2.00;;;1.80;;
39434;SDS011;66825;51.880;-0.518;2023-04-09T02:00:13;2.22;;;2.00;;
39434;SDS011;66825;51.880;-0.518;2023-04-09T02:02:41;2.67;;;2.22;;
39434;SDS011;66825;51.880;-0.518;2023-04-09T02:05:13;2.53;;;2.33;;
39434;SDS011;66825;51.880;-0.518;2023-04-09T02:07:43;2.38;;;2.17;;
39434;SDS011;66825;51.880;-0.518;2023-04-09T02:10:12;2.55;;;2.35;;
39434;SDS011;66825;51.880;-0.518;2023-04-09T02:12:39;3.28;;;2.53;;
39434;SDS011;66825;51.880;-0.518;2023-04-09T02:15:09;2.63;;;2.30;;
39434;SDS011;66825;51.880;-0.518;2023-04-09T02:17:36;2.60;;;2.40;;
39434;SDS011;66825;51.880;-0.518;2023-04-09T02:20:02;2.40;;;2.20;;
39434;SDS011;66825;51.880;-0.518;2023-04-09T02:22:28;2.40;;;2.20;;
39434;SDS011;66825;51.880;-0.518;2023-04-09T02:24:54;2.70;;;2.40;;
39434;SDS011;66825;51.880;-0.518;2023-04-09T02:27:19;2.55;;;2.20;;
39434;SDS011;66825;51.880;-0.518;2023-04-09T02:29:45;2.63;;;2.20;;
39434;SDS011;66825;51.880;-0.518;2023-04-09T02:32:10;2.85;;;2.40;;
39434;SDS011;66825;51.880;-0.518;2023-04-09T02:34:36;2.55;;;2.33;;
39434;SDS011;66825;51.880;-0.518;2023-04-09T02:37:01;2.20;;;2.00;;
39434;SDS011;66825;51.880;-0.518;2023-04-09T02:39:27;2.60;;;2.20;;
39434;SDS011;66825;51.880;-0.518;2023-04-09T02:41:52;2.75;;;2.47;;
39434;SDS011;66825;51.880;-0.518;2023-04-09T02:44:18;2.90;;;2.42;;
39434;SDS011;66825;51.880;-0.518;2023-04-09T02:46:45;2.25;;;2.05;;
39434;SDS011;66825;51.880;-0.518;2023-04-09T02:49:11;2.60;;;2.40;;
39434;SDS011;66825;51.880;-0.518;2023-04-09T02:51:36;2.50;;;2.30;;
39434;SDS011;66825;51.880;-0.518;2023-04-09T02:54:02;2.60;;;2.40;;
39434;SDS011;66825;51.880;-0.518;2023-04-09T02:56:28;2.42;;;2.22;;
39434;SDS011;66825;51.880;-0.518;2023-04-09T02:58:53;2.67;;;2.47;;
39434;SDS011;66825;51.880;-0.518;2023-04-09T03:01:19;2.97;;;2.67;;
39434;SDS011;66825;51.880;-0.518;2023-04-09T03:03:45;2.35;;;2.15;;
39434;SDS011;66825;51.880;-0.518;2023-04-09T03:06:11;3.08;;;2.55;;
39434;SDS011;66825;51.880;-0.518;2023-04-09T03:08:37;2.63;;;2.42;;
39434;SDS011;66825;51.880;-0.518;2023-04-09T03:11:02;3.33;;;2.53;;
39434;SDS011;66825;51.880;-0.518;2023-04-09T03:13:28;2.85;;;2.55;;
39434;SDS011;66825;51.880;-0.518;2023-04-09T03:15:53;2.75;;;2.53;;
39434;SDS011;66825;51.880;-0.518;2023-04-09T03:18:19;2.42;;;2.22;;
39434;SDS011;66825;51.880;-0.518;2023-04-09T03:20:44;2.53;;;2.17;;
39434;SDS011;66825;51.880;-0.518;2023-04-09T03:23:10;2.90;;;2.60;;
39434;SDS011;66825;51.880;-0.518;2023-04-09T03:25:35;2.45;;;2.25;;
39434;SDS011;66825;51.880;-0.518;2023-04-09T03:28:01;2.50;;;2.30;;
39434;SDS011;66825;51.880;-0.518;2023-04-09T03:30:27;2.55;;;2.35;;
39434;SDS011;66825;51.880;-0.518;2023-04-09T03:32:53;2.47;;;2.28;;
39434;SDS011;66825;51.880;-0.518;2023-04-09T03:35:18;2.50;;;2.30;;
39434;SDS011;66825;51.880;-0.518;2023-04-09T03:37:44;2.95;;;2.70;;
39434;SDS011;66825;51.880;-0.518;2023-04-09T03:40:10;2.60;;;2.40;;
39434;SDS011;66825;51.880;-0.518;2023-04-09T03:42:35;2.65;;;2.42;;
39434;SDS011;66825;51.880;-0.518;2023-04-09T03:45:02;2.35;;;2.15;;
39434;SDS011;66825;51.880;-0.518;2023-04-09T03:47:28;2.60;;;2.40;;
39434;SDS011;66825;51.880;-0.518;2023-04-09T03:49:53;2.70;;;2.50;;
39434;SDS011;66825;51.880;-0.518;2023-04-09T03:52:19;2.95;;;2.72;;
39434;SDS011;66825;51.880;-0.518;2023-04-09T03:54:44;2.95;;;2.65;;
39434;SDS011;66825;51.880;-0.518;2023-04-09T03:57:10;2.60;;;2.40;;
39434;SDS011;66825;51.880;-0.518;2023-04-09T03:59:35;2.47;;;2.28;;
39434;SDS011;66825;51.880;-0.518;2023-04-09T04:02:01;2.47;;;2.28;;
39434;SDS011;66825;51.880;-0.518;2023-04-09T04:04:26;2.95;;;2.65;;
39434;SDS011;66825;51.880;-0.518;2023-04-09T04:06:51;3.20;;;2.60;;
39434;SDS011;66825;51.880;-0.518;2023-04-09T04:09:17;2.55;;;2.35;;
39434;SDS011;66825;51.880;-0.518;2023-04-09T04:11:42;2.83;;;2.50;;
39434;SDS011;66825;51.880;-0.518;2023-04-09T04:14:08;2.50;;;2.30;;
39434;SDS011;66825;51.880;-0.518;2023-04-09T04:16:33;2.55;;;2.35;;
39434;SDS011;66825;51.880;-0.518;2023-04-09T04:18:59;2.88;;;2.63;;
39434;SDS011;66825;51.880;-0.518;2023-04-09T04:21:24;2.55;;;2.35;;
39434;SDS011;66825;51.880;-0.518;2023-04-09T04:23:51;2.88;;;2.65;;
39434;SDS011;66825;51.880;-0.518;2023-04-09T04:26:16;2.67;;;2.45;;
39434;SDS011;66825;51.880;-0.518;2023-04-09T04:28:42;2.75;;;2.55;;
39434;SDS011;66825;51.880;-0.518;2023-04-09T04:31:08;2.40;;;2.20;;
39434;SDS011;66825;51.880;-0.518;2023-04-09T04:33:35;2.75;;;2.55;;
39434;SDS011;66825;51.880;-0.518;2023-04-09T04:36:08;2.97;;;2.58;;
39434;SDS011;66825;51.880;-0.518;2023-04-09T04:38:35;2.50;;;2.30;;
39434;SDS011;66825;51.880;-0.518;2023-04-09T04:41:01;2.80;;;2.55;;
39434;SDS011;66825;51.880;-0.518;2023-04-09T04:43:26;2.47;;;2.28;;
39434;SDS011;66825;51.880;-0.518;2023-04-09T04:45:52;2.95;;;2.65;;
39434;SDS011;66825;51.880;-0.518;2023-04-09T04:48:18;2.78;;;2.53;;
39434;SDS011;66825;51.880;-0.518;2023-04-09T04:50:43;2.67;;;2.47;;
39434;SDS011;66825;51.880;-0.518;2023-04-09T04:53:09;2.65;;;2.45;;
39434;SDS011;66825;51.880;-0.518;2023-04-09T04:55:35;2.55;;;2.28;;
39434;SDS011;66825;51.880;-0.518;2023-04-09T04:58:01;2.50;;;2.30;;
39434;SDS011;66825;51.880;-0.518;2023-04-09T05:00:27;2.80;;;2.60;;
39434;SDS011;66825;51.880;-0.518;2023-04-09T05:02:52;2.67;;;2.47;;
39434;SDS011;66825;51.880;-0.518;2023-04-09T05:05:18;2.58;;;2.38;;
39434;SDS011;66825;51.880;-0.518;2023-04-09T05:07:43;2.80;;;2.60;;
39434;SDS011;66825;51.880;-0.518;2023-04-09T05:10:09;2.70;;;2.50;;
39434;SDS011;66825;51.880;-0.518;2023-04-09T05:12:34;2.58;;;2.38;;
39434;SDS011;66825;51.880;-0.518;2023-04-09T05:15:00;2.92;;;2.67;;
39434;SDS011;66825;51.880;-0.518;2023-04-09T05:17:26;2.60;;;2.40;;
39434;SDS011;66825;51.880;-0.518;2023-04-09T05:19:51;2.88;;;2.67;;
39434;SDS011;66825;51.880;-0.518;2023-04-09T05:22:17;2.55;;;2.35;;
39434;SDS011;66825;51.880;-0.518;2023-04-09T05:24:43;2.90;;;2.70;;
39434;SDS011;66825;51.880;-0.518;2023-04-09T05:27:09;2.90;;;2.60;;
39434;SDS011;66825;51.880;-0.518;2023-04-09T05:29:34;2.95;;;2.65;;
39434;SDS011;66825;51.880;-0.518;2023-04-09T05:32:00;2.80;;;2.45;;
39434;SDS011;66825;51.880;-0.518;2023-04-09T05:34:25;3.03;;;2.72;;
39434;SDS011;66825;51.880;-0.518;2023-04-09T05:36:51;2.92;;;2.72;;
39434;SDS011;66825;51.880;-0.518;2023-04-09T05:39:17;2.60;;;2.40;;
39434;SDS011;66825;51.880;-0.518;2023-04-09T05:41:42;2.80;;;2.60;;
39434;SDS011;66825;51.880;-0.518;2023-04-09T05:44:09;2.72;;;2.53;;
39434;SDS011;66825;51.880;-0.518;2023-04-09T05:46:35;2.70;;;2.50;;
39434;SDS011;66825;51.880;-0.518;2023-04-09T05:49:01;3.00;;;2.70;;
39434;SDS011;66825;51.880;-0.518;2023-04-09T05:51:26;2.70;;;2.50;;
39434;SDS011;66825;51.880;-0.518;2023-04-09T05:53:52;2.95;;;2.75;;
39434;SDS011;66825;51.880;-0.518;2023-04-09T05:56:18;3.03;;;2.72;;
39434;SDS011;66825;51.880;-0.518;2023-04-09T05:58:43;2.63;;;2.42;;
39434;SDS011;66825;51.880;-0.518;2023-04-09T06:01:09;3.03;;;2.70;;
39434;SDS011;66825;51.880;-0.518;2023-04-09T06:03:34;2.78;;;2.58;;
39434;SDS011;66825;51.880;-0.518;2023-04-09T06:06:00;3.15;;;2.85;;
39434;SDS011;66825;51.880;-0.518;2023-04-09T06:08:25;2.85;;;2.65;;
39434;SDS011;66825;51.880;-0.518;2023-04-09T06:10:51;3.00;;;2.80;;
39434;SDS011;66825;51.880;-0.518;2023-04-09T06:13:16;2.75;;;2.55;;
39434;SDS011;66825;51.880;-0.518;2023-04-09T06:15:42;2.88;;;2.67;;
39434;SDS011;66825;51.880;-0.518;2023-04-09T06:18:07;3.08;;;2.80;;
39434;SDS011;66825;51.880;-0.518;2023-04-09T06:20:32;3.25;;;2.95;;
39434;SDS011;66825;51.880;-0.518;2023-04-09T06:22:58;3.22;;;2.90;;
39434;SDS011;66825;51.880;-0.518;2023-04-09T06:25:23;3.25;;;2.95;;
39434;SDS011;66825;51.880;-0.518;2023-04-09T06:27:49;3.00;;;2.80;;
39434;SDS011;66825;51.880;-0.518;2023-04-09T06:30:14;3.25;;;2.95;;
39434;SDS011;66825;51.880;-0.518;2023-04-09T06:32:40;3.10;;;2.83;;
39434;SDS011;66825;51.880;-0.518;2023-04-09T06:35:05;3.63;;;2.70;;
39434;SDS011;66825;51.880;-0.518;2023-04-09T06:37:32;3.05;;;2.78;;
39434;SDS011;66825;51.880;-0.518;2023-04-09T06:39:58;3.25;;;2.97;;
39434;SDS011;66825;51.880;-0.518;2023-04-09T06:42:23;3.47;;;3.17;;
39434;SDS011;66825;51.880;-0.518;2023-04-09T06:44:50;3.50;;;3.20;;
39434;SDS011;66825;51.880;-0.518;2023-04-09T06:47:16;3.47;;;3.17;;
39434;SDS011;66825;51.880;-0.518;2023-04-09T06:49:41;3.25;;;2.95;;
39434;SDS011;66825;51.880;-0.518;2023-04-09T06:52:07;3.55;;;3.25;;
39434;SDS011;66825;51.880;-0.518;2023-04-09T06:54:32;3.50;;;3.20;;
39434;SDS011;66825;51.880;-0.518;2023-04-09T06:56:57;3.35;;;3.05;;
39434;SDS011;66825;51.880;-0.518;2023-04-09T06:59:23;3.60;;;3.30;;
39434;SDS011;66825;51.880;-0.518;2023-04-09T07:01:48;4.15;;;3.45;;
39434;SDS011;66825;51.880;-0.518;2023-04-09T07:04:14;3.60;;;3.30;;
39434;SDS011;66825;51.880;-0.518;2023-04-09T07:06:39;4.07;;;3.78;;
39434;SDS011;66825;51.880;-0.518;2023-04-09T07:09:05;3.97;;;3.67;;
39434;SDS011;66825;51.880;-0.518;2023-04-09T07:11:31;4.03;;;3.70;;
39434;SDS011;66825;51.880;-0.518;2023-04-09T07:13:57;3.75;;;3.45;;
39434;SDS011;66825;51.880;-0.518;2023-04-09T07:16:23;3.83;;;3.53;;
39434;SDS011;66825;51.880;-0.518;2023-04-09T07:18:48;4.00;;;3.60;;
39434;SDS011;66825;51.880;-0.518;2023-04-09T07:21:14;4.60;;;4.20;;
39434;SDS011;66825;51.880;-0.518;2023-04-09T07:23:40;3.75;;;3.45;;
39434;SDS011;66825;51.880;-0.518;2023-04-09T07:26:05;3.70;;;3.40;;
39434;SDS011;66825;51.880;-0.518;2023-04-09T07:28:31;4.25;;;3.85;;
39434;SDS011;66825;51.880;-0.518;2023-04-09T07:30:57;4.32;;;3.92;;
39434;SDS011;66825;51.880;-0.518;2023-04-09T07:33:22;3.90;;;3.60;;
39434;SDS011;66825;51.880;-0.518;2023-04-09T07:35:48;4.03;;;3.72;;
39434;SDS011;66825;51.880;-0.518;2023-04-09T07:38:13;4.40;;;4.00;;
39434;SDS011;66825;51.880;-0.518;2023-04-09T07:40:40;4.30;;;3.90;;
39434;SDS011;66825;51.880;-0.518;2023-04-09T07:43:06;4.35;;;3.95;;
39434;SDS011;66825;51.880;-0.518;2023-04-09T07:45:31;4.30;;;3.90;;
39434;SDS011;66825;51.880;-0.518;2023-04-09T07:47:57;4.30;;;3.90;;
39434;SDS011;66825;51.880;-0.518;2023-04-09T07:50:22;4.15;;;3.75;;
39434;SDS011;66825;51.880;-0.518;2023-04-09T07:52:48;4.22;;;3.90;;
39434;SDS011;66825;51.880;-0.518;2023-04-09T07:55:13;4.32;;;3.92;;
39434;SDS011;66825;51.880;-0.518;2023-04-09T07:57:38;3.97;;;3.67;;
39434;SDS011;66825;51.880;-0.518;2023-04-09T08:00:04;4.25;;;3.90;;
39434;SDS011;66825;51.880;-0.518;2023-04-09T08:02:30;4.88;;;4.47;;
39434;SDS011;66825;51.880;-0.518;2023-04-09T08:04:56;4.10;;;3.70;;
39434;SDS011;66825;51.880;-0.518;2023-04-09T08:07:21;4.13;;;3.83;;
39434;SDS011;66825;51.880;-0.518;2023-04-09T08:09:47;4.40;;;4.00;;
39434;SDS011;66825;51.880;-0.518;2023-04-09T08:12:12;4.07;;;3.78;;
39434;SDS011;66825;51.880;-0.518;2023-04-09T08:14:38;4.28;;;3.88;;
39434;SDS011;66825;51.880;-0.518;2023-04-09T08:17:03;4.10;;;3.75;;
39434;SDS011;66825;51.880;-0.518;2023-04-09T08:19:29;4.40;;;4.00;;
39434;SDS011;66825;51.880;-0.518;2023-04-09T08:21:54;3.85;;;3.55;;
39434;SDS011;66825;51.880;-0.518;2023-04-09T08:24:20;4.25;;;3.88;;
39434;SDS011;66825;51.880;-0.518;2023-04-09T08:26:46;4.10;;;3.80;;
39434;SDS011;66825;51.880;-0.518;2023-04-09T08:29:12;3.60;;;3.30;;
39434;SDS011;66825;51.880;-0.518;2023-04-09T08:31:38;4.43;;;4.03;;
39434;SDS011;66825;51.880;-0.518;2023-04-09T08:34:04;4.47;;;4.07;;
39434;SDS011;66825;51.880;-0.518;2023-04-09T08:36:30;4.45;;;4.05;;
39434;SDS011;66825;51.880;-0.518;2023-04-09T08:38:56;4.68;;;4.28;;
39434;SDS011;66825;51.880;-0.518;2023-04-09T08:41:25;4.70;;;4.30;;
39434;SDS011;66825;51.880;-0.518;2023-04-09T08:43:53;4.30;;;3.90;;
39434;SDS011;66825;51.880;-0.518;2023-04-09T08:46:20;4.45;;;4.05;;
39434;SDS011;66825;51.880;-0.518;2023-04-09T08:48:47;4.35;;;3.95;;
39434;SDS011;66825;51.880;-0.518;2023-04-09T08:51:14;4.30;;;3.90;;
39434;SDS011;66825;51.880;-0.518;2023-04-09T08:53:47;4.00;;;3.70;;
39434;SDS011;66825;51.880;-0.518;2023-04-09T08:56:17;4.35;;;3.95;;
39434;SDS011;66825;51.880;-0.518;2023-04-09T08:58:44;3.90;;;3.58;;
39434;SDS011;66825;51.880;-0.518;2023-04-09T09:03:59;3.00;;;2.80;;
39434;SDS011;66825;51.880;-0.518;2023-04-09T09:06:32;3.20;;;2.90;;
39434;SDS011;66825;51.880;-0.518;2023-04-09T09:09:03;3.75;;;3.45;;
39434;SDS011;66825;51.880;-0.518;2023-04-09T09:11:29;3.45;;;3.15;;
39434;SDS011;66825;51.880;-0.518;2023-04-09T09:14:03;3.78;;;3.47;;
39434;SDS011;66825;51.880;-0.518;2023-04-09T09:16:36;3.65;;;3.35;;
39434;SDS011;66825;51.880;-0.518;2023-04-09T09:19:09;3.80;;;3.50;;
39434;SDS011;66825;51.880;-0.518;2023-04-09T09:21:56;4.75;;;3.40;;
39434;SDS011;66825;51.880;-0.518;2023-04-09T09:24:23;4.15;;;3.75;;
39434;SDS011;66825;51.880;-0.518;2023-04-09T09:26:48;4.20;;;3.80;;
39434;SDS011;66825;51.880;-0.518;2023-04-09T09:29:14;4.30;;;3.90;;
39434;SDS011;66825;51.880;-0.518;2023-04-09T09:31:46;4.07;;;3.78;;
39434;SDS011;66825;51.880;-0.518;2023-04-09T09:34:16;4.25;;;3.85;;
39434;SDS011;66825;51.880;-0.518;2023-04-09T09:36:42;3.88;;;3.53;;
39434;SDS011;66825;51.880;-0.518;2023-04-09T09:39:09;3.88;;;3.50;;
39434;SDS011;66825;51.880;-0.518;2023-04-09T09:41:36;3.85;;;3.53;;
39434;SDS011;66825;51.880;-0.518;2023-04-09T09:44:02;4.22;;;3.90;;
39434;SDS011;66825;51.880;-0.518;2023-04-09T09:46:34;4.00;;;3.60;;
39434;SDS011;66825;51.880;-0.518;2023-04-09T09:49:02;4.47;;;4.07;;
39434;SDS011;66825;51.880;-0.518;2023-04-09T09:51:28;4.20;;;3.80;;
39434;SDS011;66825;51.880;-0.518;2023-04-09T09:53:56;4.43;;;4.03;;
39434;SDS011;66825;51.880;-0.518;2023-04-09T09:56:35;4.50;;;4.10;;
39434;SDS011;66825;51.880;-0.518;2023-04-09T09:59:06;4.60;;;4.20;;
39434;SDS011;66825;51.880;-0.518;2023-04-09T10:01:39;4.32;;;3.92;;
39434;SDS011;66825;51.880;-0.518;2023-04-09T10:04:05;4.80;;;4.40;;
39434;SDS011;66825;51.880;-0.518;2023-04-09T10:06:37;4.72;;;4.22;;
39434;SDS011;66825;51.880;-0.518;2023-04-09T10:09:07;4.47;;;4.07;;
39434;SDS011;66825;51.880;-0.518;2023-04-09T10:11:34;4.80;;;3.90;;
39434;SDS011;66825;51.880;-0.518;2023-04-09T10:14:01;4.50;;;4.10;;
39434;SDS011;66825;51.880;-0.518;2023-04-09T10:16:27;4.00;;;3.60;;
39434;SDS011;66825;51.880;-0.518;2023-04-09T10:18:54;5.03;;;4.53;;
39434;SDS011;66825;51.880;-0.518;2023-04-09T10:21:25;6.03;;;4.57;;
39434;SDS011;66825;51.880;-0.518;2023-04-09T10:24:07;4.72;;;4.28;;
39434;SDS011;66825;51.880;-0.518;2023-04-09T10:26:34;4.10;;;3.70;;
39434;SDS011;66825;51.880;-0.518;2023-04-09T10:29:04;5.85;;;4.47;;
39434;SDS011;66825;51.880;-0.518;2023-04-09T10:31:47;4.50;;;4.10;;
39434;SDS011;66825;51.880;-0.518;2023-04-09T10:34:20;3.90;;;3.50;;
39434;SDS011;66825;51.880;-0.518;2023-04-09T10:36:51;4.57;;;4.18;;
39434;SDS011;66825;51.880;-0.518;2023-04-09T10:39:19;4.93;;;3.85;;
39434;SDS011;66825;51.880;-0.518;2023-04-09T10:41:45;4.35;;;3.88;;
39434;SDS011;66825;51.880;-0.518;2023-04-09T10:44:31;4.05;;;3.63;;
39434;SDS011;66825;51.880;-0.518;2023-04-09T10:46:56;4.30;;;3.90;;
39434;SDS011;66825;51.880;-0.518;2023-04-09T10:49:23;4.20;;;3.80;;
39434;SDS011;66825;51.880;-0.518;2023-04-09T10:52:00;4.22;;;3.70;;
39434;SDS011;66825;51.880;-0.518;2023-04-09T10:57:09;4.00;;;3.22;;
39434;SDS011;66825;51.880;-0.518;2023-04-09T10:59:47;4.00;;;3.35;;
39434;SDS011;66825;51.880;-0.518;2023-04-09T11:10:27;3.20;;;2.90;;
39434;SDS011;66825;51.880;-0.518;2023-04-09T11:12:53;4.07;;;3.22;;
39434;SDS011;66825;51.880;-0.518;2023-04-09T11:15:19;3.45;;;3.10;;
39434;SDS011;66825;51.880;-0.518;2023-04-09T11:17:45;3.38;;;3.00;;
39434;SDS011;66825;51.880;-0.518;2023-04-09T11:20:12;3.20;;;2.90;;
39434;SDS011;66825;51.880;-0.518;2023-04-09T11:22:39;3.45;;;2.50;;
39434;SDS011;66825;51.880;-0.518;2023-04-09T11:25:05;4.75;;;2.70;;
39434;SDS011;66825;51.880;-0.518;2023-04-09T11:27:35;3.30;;;3.00;;
39434;SDS011;66825;51.880;-0.518;2023-04-09T11:30:01;3.55;;;2.90;;
39434;SDS011;66825;51.880;-0.518;2023-04-09T11:32:29;3.33;;;3.03;;
39434;SDS011;66825;51.880;-0.518;2023-04-09T11:34:55;3.00;;;2.70;;
39434;SDS011;66825;51.880;-0.518;2023-04-09T11:37:21;3.60;;;2.63;;
39434;SDS011;66825;51.880;-0.518;2023-04-09T11:39:47;2.83;;;2.50;;
39434;SDS011;66825;51.880;-0.518;2023-04-09T11:42:15;2.80;;;2.50;;
39434;SDS011;66825;51.880;-0.518;2023-04-09T11:44:43;2.85;;;2.50;;
39434;SDS011;66825;51.880;-0.518;2023-04-09T11:47:09;3.20;;;2.50;;
39434;SDS011;66825;51.880;-0.518;2023-04-09T11:49:35;2.92;;;2.60;;
39434;SDS011;66825;51.880;-0.518;2023-04-09T11:52:01;3.05;;;2.40;;
39434;SDS011;66825;51.880;-0.518;2023-04-09T11:54:31;3.25;;;2.50;;
39434;SDS011;66825;51.880;-0.518;2023-04-09T11:56:57;3.88;;;2.42;;
39434;SDS011;66825;51.880;-0.518;2023-04-09T11:59:23;5.57;;;3.67;;
39434;SDS011;66825;51.880;-0.518;2023-04-09T12:01:50;6.68;;;3.83;;
39434;SDS011;66825;51.880;-0.518;2023-04-09T12:04:24;5.20;;;4.05;;
39434;SDS011;66825;51.880;-0.518;2023-04-09T12:06:50;7.28;;;3.63;;
39434;SDS011;66825;51.880;-0.518;2023-04-09T12:09:16;6.03;;;3.75;;
39434;SDS011;66825;51.880;-0.518;2023-04-09T12:11:42;7.18;;;3.55;;
39434;SDS011;66825;51.880;-0.518;2023-04-09T12:14:11;6.80;;;3.70;;
39434;SDS011;66825;51.880;-0.518;2023-04-09T12:16:38;10.52;;;5.07;;
39434;SDS011;66825;51.880;-0.518;2023-04-09T12:19:09;6.57;;;4.43;;
39434;SDS011;66825;51.880;-0.518;2023-04-09T12:24:11;4.25;;;3.65;;
39434;SDS011;66825;51.880;-0.518;2023-04-09T12:26:37;6.90;;;3.80;;
39434;SDS011;66825;51.880;-0.518;2023-04-09T12:29:02;6.28;;;3.70;;
39434;SDS011;66825;51.880;-0.518;2023-04-09T12:31:28;7.82;;;3.65;;
39434;SDS011;66825;51.880;-0.518;2023-04-09T12:33:53;5.25;;;3.50;;
39434;SDS011;66825;51.880;-0.518;2023-04-09T12:36:18;4.25;;;3.30;;
39434;SDS011;66825;51.880;-0.518;2023-04-09T12:38:44;5.82;;;2.80;;
39434;SDS011;66825;51.880;-0.518;2023-04-09T12:41:10;6.53;;;3.13;;
39434;SDS011;66825;51.880;-0.518;2023-04-09T12:43:37;6.72;;;3.53;;
39434;SDS011;66825;51.880;-0.518;2023-04-09T12:46:02;4.80;;;2.90;;
39434;SDS011;66825;51.880;-0.518;2023-04-09T12:48:28;4.10;;;3.40;;
39434;SDS011;66825;51.880;-0.518;2023-04-09T12:50:54;4.57;;;2.85;;
39434;SDS011;66825;51.880;-0.518;2023-04-09T12:53:19;4.63;;;2.70;;
39434;SDS011;66825;51.880;-0.518;2023-04-09T12:55:45;4.20;;;2.80;;
39434;SDS011;66825;51.880;-0.518;2023-04-09T12:58:11;4.05;;;2.63;;
39434;SDS011;66825;51.880;-0.518;2023-04-09T13:00:36;5.57;;;2.60;;
39434;SDS011;66825;51.880;-0.518;2023-04-09T13:03:01;3.75;;;2.58;;
39434;SDS011;66825;51.880;-0.518;2023-04-09T13:05:27;4.40;;;2.78;;
39434;SDS011;66825;51.880;-0.518;2023-04-09T13:07:52;4.50;;;2.47;;
39434;SDS011;66825;51.880;-0.518;2023-04-09T13:10:18;4.45;;;2.65;;
39434;SDS011;66825;51.880;-0.518;2023-04-09T13:12:43;3.13;;;2.35;;
39434;SDS011;66825;51.880;-0.518;2023-04-09T13:15:09;3.30;;;2.40;;
39434;SDS011;66825;51.880;-0.518;2023-04-09T13:17:35;3.85;;;2.42;;
39434;SDS011;66825;51.880;-0.518;2023-04-09T13:20:01;3.85;;;2.40;;
39434;SDS011;66825;51.880;-0.518;2023-04-09T13:22:27;3.03;;;2.25;;
39434;SDS011;66825;51.880;-0.518;2023-04-09T13:24:52;3.20;;;2.20;;
39434;SDS011;66825;51.880;-0.518;2023-04-09T13:27:18;3.83;;;2.00;;
39434;SDS011;66825;51.880;-0.518;2023-04-09T13:29:43;2.92;;;1.95;;
39434;SDS011;66825;51.880;-0.518;2023-04-09T13:32:09;2.50;;;2.10;;
39434;SDS011;66825;51.880;-0.518;2023-04-09T13:34:35;3.88;;;2.22;;
39434;SDS011;66825;51.880;-0.518;2023-04-09T13:37:03;3.92;;;2.35;;
39434;SDS011;66825;51.880;-0.518;2023-04-09T13:39:29;3.65;;;2.40;;
39434;SDS011;66825;51.880;-0.518;2023-04-09T13:41:54;4.10;;;2.13;;
39434;SDS011;66825;51.880;-0.518;2023-04-09T13:44:21;3.08;;;1.88;;
39434;SDS011;66825;51.880;-0.518;2023-04-09T13:46:47;3.45;;;2.20;;
39434;SDS011;66825;51.880;-0.518;2023-04-09T13:49:12;3.22;;;1.88;;
39434;SDS011;66825;51.880;-0.518;2023-04-09T13:51:37;2.40;;;1.85;;
39434;SDS011;66825;51.880;-0.518;2023-04-09T13:54:03;2.88;;;2.03;;
39434;SDS011;66825;51.880;-0.518;2023-04-09T13:56:29;2.58;;;1.95;;
39434;SDS011;66825;51.880;-0.518;2023-04-09T13:58:55;2.80;;;2.00;;
39434;SDS011;66825;51.880;-0.518;2023-04-09T14:01:20;2.50;;;2.00;;
39434;SDS011;66825;51.880;-0.518;2023-04-09T14:03:46;3.03;;;2.00;;
39434;SDS011;66825;51.880;-0.518;2023-04-09T14:06:11;2.20;;;1.90;;
39434;SDS011;66825;51.880;-0.518;2023-04-09T14:08:37;2.05;;;1.80;;
39434;SDS011;66825;51.880;-0.518;2023-04-09T14:11:03;2.03;;;1.70;;
39434;SDS011;66825;51.880;-0.518;2023-04-09T14:13:28;2.78;;;1.92;;
39434;SDS011;66825;51.880;-0.518;2023-04-09T14:15:54;2.00;;;1.80;;
39434;SDS011;66825;51.880;-0.518;2023-04-09T14:18:20;2.17;;;1.60;;
39434;SDS011;66825;51.880;-0.518;2023-04-09T14:20:45;2.22;;;1.77;;
39434;SDS011;66825;51.880;-0.518;2023-04-09T14:23:11;2.42;;;1.85;;
39434;SDS011;66825;51.880;-0.518;2023-04-09T14:25:36;2.92;;;1.90;;
39434;SDS011;66825;51.880;-0.518;2023-04-09T14:28:02;2.75;;;1.90;;
39434;SDS011;66825;51.880;-0.518;2023-04-09T14:30:28;2.03;;;1.83;;
39434;SDS011;66825;51.880;-0.518;2023-04-09T14:32:53;2.08;;;1.80;;
39434;SDS011;66825;51.880;-0.518;2023-04-09T14:35:19;2.50;;;1.90;;
39434;SDS011;66825;51.880;-0.518;2023-04-09T14:37:45;2.35;;;1.80;;
39434;SDS011;66825;51.880;-0.518;2023-04-09T14:40:11;2.40;;;1.80;;
39434;SDS011;66825;51.880;-0.518;2023-04-09T14:42:36;2.20;;;1.77;;
39434;SDS011;66825;51.880;-0.518;2023-04-09T14:45:03;2.47;;;1.90;;
39434;SDS011;66825;51.880;-0.518;2023-04-09T14:47:28;2.50;;;2.05;;
39434;SDS011;66825;51.880;-0.518;2023-04-09T14:49:54;2.53;;;1.73;;
39434;SDS011;66825;51.880;-0.518;2023-04-09T14:52:19;1.85;;;1.70;;
39434;SDS011;66825;51.880;-0.518;2023-04-09T14:54:45;2.03;;;1.52;;
39434;SDS011;66825;51.880;-0.518;2023-04-09T14:57:11;2.35;;;1.77;;
39434;SDS011;66825;51.880;-0.518;2023-04-09T14:59:36;2.58;;;1.75;;